createdAt,value
2018-09-10T00:01:09.775Z,16.30
2018-09-10T00:03:38.127Z,16.30
2018-09-10T00:06:06.451Z,16.30
2018-09-10T00:08:34.736Z,16.20
2018-09-10T00:11:02.999Z,16.20
2018-09-10T00:13:31.301Z,16.30
2018-09-10T00:15:59.627Z,16.30
2018-09-10T00:18:27.976Z,16.20
2018-09-10T00:20:56.243Z,16.20
2018-09-10T00:23:24.584Z,16.20
2018-09-10T00:25:52.897Z,16.20
2018-09-10T00:28:21.201Z,16.20
2018-09-10T00:30:49.574Z,16.30
2018-09-10T00:33:17.907Z,16.20
2018-09-10T00:35:46.208Z,16.20
2018-09-10T00:38:14.512Z,16.20
2018-09-10T00:40:42.801Z,16.20
2018-09-10T00:43:11.299Z,16.20
2018-09-10T00:45:39.611Z,16.10
2018-09-10T00:48:08.288Z,16.00
2018-09-10T00:50:36.645Z,16.00
2018-09-10T00:53:05.039Z,15.90
2018-09-10T00:55:33.332Z,15.90
2018-09-10T00:58:01.894Z,15.90
2018-09-10T01:00:30.218Z,15.80
2018-09-10T01:02:58.518Z,15.70
2018-09-10T01:05:26.825Z,15.70
2018-09-10T01:07:55.118Z,15.70
2018-09-10T01:10:23.531Z,15.60
2018-09-10T01:12:51.834Z,15.60
2018-09-10T01:15:20.123Z,15.40
2018-09-10T01:17:48.421Z,15.60
2018-09-10T01:20:16.734Z,15.60
2018-09-10T01:22:45.040Z,15.50
2018-09-10T01:25:13.330Z,15.50
2018-09-10T01:27:41.667Z,15.60
2018-09-10T01:30:10.012Z,15.60
2018-09-10T01:32:38.305Z,15.50
2018-09-10T01:35:07.566Z,15.60
2018-09-10T01:37:36.249Z,15.50
2018-09-10T01:40:04.808Z,15.50
2018-09-10T01:42:33.287Z,15.40
2018-09-10T01:45:02.180Z,15.40
2018-09-10T01:47:30.506Z,15.40
2018-09-10T01:49:58.778Z,15.30
2018-09-10T01:52:27.725Z,15.30
2018-09-10T01:54:56.034Z,15.20
2018-09-10T01:57:24.366Z,15.20
2018-09-10T01:59:52.667Z,15.20
2018-09-10T02:02:20.919Z,15.10
2018-09-10T02:04:49.259Z,15.10
2018-09-10T02:07:17.779Z,15.10
2018-09-10T02:09:46.073Z,15.10
2018-09-10T02:12:19.746Z,15.10
2018-09-10T02:14:48.077Z,15.10
2018-09-10T02:17:16.494Z,15.10
2018-09-10T02:19:45.001Z,15.10
2018-09-10T02:22:13.282Z,15.00
2018-09-10T02:24:41.568Z,14.80
2018-09-10T02:27:16.454Z,14.70
2018-09-10T02:29:44.726Z,14.80
2018-09-10T02:32:12.999Z,14.70
2018-09-10T02:34:41.329Z,14.70
2018-09-10T02:37:09.677Z,14.60
2018-09-10T02:39:38.076Z,14.70
2018-09-10T02:42:06.575Z,14.60
2018-09-10T02:44:34.855Z,14.50
2018-09-10T02:47:03.134Z,14.50
2018-09-10T02:49:31.462Z,14.50
2018-09-10T02:51:59.743Z,14.60
2018-09-10T02:54:28.038Z,14.50
2018-09-10T02:56:56.372Z,14.50
2018-09-10T02:59:24.619Z,14.50
2018-09-10T03:01:52.900Z,14.50
2018-09-10T03:04:21.192Z,14.50
2018-09-10T03:06:49.539Z,14.50
2018-09-10T03:09:17.915Z,14.50
2018-09-10T03:11:46.201Z,14.50
2018-09-10T03:14:14.483Z,14.50
2018-09-10T03:16:42.906Z,14.50
2018-09-10T03:19:11.197Z,14.60
2018-09-10T03:21:39.480Z,14.50
2018-09-10T03:24:07.917Z,14.50
2018-09-10T03:26:36.193Z,14.50
2018-09-10T03:29:04.515Z,14.50
2018-09-10T03:31:32.771Z,14.50
2018-09-10T03:34:01.068Z,14.50
2018-09-10T03:36:29.358Z,14.40
2018-09-10T03:38:57.651Z,14.30
2018-09-10T03:41:26.014Z,14.40
2018-09-10T03:43:54.329Z,14.40
2018-09-10T03:46:22.627Z,14.40
2018-09-10T03:48:50.999Z,14.40
2018-09-10T03:51:19.266Z,14.40
2018-09-10T03:53:47.563Z,14.40
2018-09-10T03:56:15.842Z,14.40
2018-09-10T03:58:44.139Z,14.30
2018-09-10T04:01:12.423Z,14.40
2018-09-10T04:03:40.711Z,14.30
2018-09-10T04:06:09.014Z,14.30
2018-09-10T04:08:37.296Z,14.30
2018-09-10T04:11:05.778Z,14.20
2018-09-10T04:13:34.231Z,14.10
2018-09-10T04:16:02.546Z,14.10
2018-09-10T04:18:30.865Z,14.10
2018-09-10T04:20:59.229Z,14.10
2018-09-10T04:23:27.574Z,14.20
2018-09-10T04:25:55.900Z,14.20
2018-09-10T04:28:24.230Z,14.20
2018-09-10T04:30:52.559Z,14.00
2018-09-10T04:33:20.875Z,14.00
2018-09-10T04:35:49.289Z,14.00
2018-09-10T04:38:17.582Z,14.00
2018-09-10T04:40:45.936Z,13.90
2018-09-10T04:43:14.310Z,13.90
2018-09-10T04:45:42.650Z,13.80
2018-09-10T04:48:10.954Z,13.80
2018-09-10T04:50:39.271Z,13.80
2018-09-10T04:53:07.604Z,13.90
2018-09-10T04:55:35.956Z,13.80
2018-09-10T04:58:20.371Z,13.90
2018-09-10T05:00:58.991Z,13.90
2018-09-10T05:03:32.941Z,13.90
2018-09-10T05:06:10.699Z,14.00
2018-09-10T05:08:46.471Z,14.00
2018-09-10T05:11:20.989Z,14.00
2018-09-10T05:13:55.928Z,14.00
2018-09-10T05:16:34.870Z,14.00
2018-09-10T05:19:07.722Z,14.00
2018-09-10T05:24:37.959Z,14.00
2018-09-10T05:27:17.006Z,13.90
2018-09-10T05:29:52.145Z,14.00
2018-09-10T05:32:28.115Z,14.00
2018-09-10T05:35:01.204Z,13.90
2018-09-10T05:37:37.019Z,13.80
2018-09-10T05:40:14.869Z,13.90
2018-09-10T05:42:51.601Z,14.00
2018-09-10T05:45:27.250Z,14.00
2018-09-10T05:48:03.554Z,14.00
2018-09-10T05:50:38.875Z,14.10
2018-09-10T05:53:13.819Z,14.00
2018-09-10T05:55:49.773Z,14.00
2018-09-10T05:58:27.569Z,14.10
2018-09-10T06:01:00.290Z,14.10
2018-09-10T06:03:39.242Z,14.10
2018-09-10T06:06:18.814Z,14.20
2018-09-10T06:08:56.184Z,14.30
2018-09-10T06:11:34.380Z,14.40
2018-09-10T06:14:07.892Z,14.50
2018-09-10T06:16:39.923Z,14.50
2018-09-10T06:19:15.300Z,14.60
2018-09-10T06:22:17.687Z,14.60
2018-09-10T06:24:54.980Z,14.60
2018-09-10T06:27:37.453Z,14.70
2018-09-10T06:30:16.470Z,14.70
2018-09-10T06:32:48.707Z,14.70
2018-09-10T06:35:27.508Z,14.80
2018-09-10T06:40:48.393Z,14.90
2018-09-10T06:43:21.167Z,15.00
2018-09-10T06:45:56.766Z,15.10
2018-09-10T06:48:41.931Z,15.20
2018-09-10T06:51:15.534Z,15.40
2018-09-10T06:53:55.582Z,15.50
2018-09-10T06:56:34.501Z,15.70
2018-09-10T06:59:11.692Z,15.70
2018-09-10T07:01:55.732Z,15.70
2018-09-10T07:07:30.988Z,15.80
2018-09-10T07:10:10.207Z,15.90
2018-09-10T07:12:50.109Z,16.00
2018-09-10T07:15:37.317Z,16.00
2018-09-10T07:18:12.343Z,16.10
2018-09-10T07:20:52.896Z,16.10
2018-09-10T07:23:28.522Z,16.30
2018-09-10T07:26:06.640Z,16.30
2018-09-10T07:28:45.898Z,16.50
2018-09-10T07:31:22.289Z,16.50
2018-09-10T07:34:01.091Z,16.70
2018-09-10T07:36:44.398Z,16.80
2018-09-10T07:39:21.044Z,16.90
2018-09-10T07:41:53.448Z,17.00
2018-09-10T07:44:28.995Z,17.00
2018-09-10T07:47:15.188Z,17.00
2018-09-10T07:49:56.040Z,17.10
2018-09-10T07:52:31.624Z,17.10
2018-09-10T07:55:07.878Z,17.20
2018-09-10T07:57:41.068Z,17.20
2018-09-10T08:00:19.358Z,17.20
2018-09-10T08:02:55.263Z,17.30
2018-09-10T08:05:38.655Z,17.40
2018-09-10T08:08:11.446Z,17.60
2018-09-10T08:10:51.602Z,17.70
2018-09-10T08:13:30.839Z,17.80
2018-09-10T08:16:21.619Z,17.90
2018-09-10T08:18:54.073Z,18.00
2018-09-10T08:24:11.266Z,18.10
2018-09-10T08:26:45.753Z,18.20
2018-09-10T08:29:26.749Z,18.20
2018-09-10T08:31:55.133Z,18.20
2018-09-10T08:34:23.494Z,18.30
2018-09-10T08:36:51.913Z,18.10
2018-09-10T08:39:20.228Z,18.20
2018-09-10T08:41:48.546Z,18.30
2018-09-10T08:44:16.899Z,18.30
2018-09-10T08:46:45.198Z,18.40
2018-09-10T08:49:13.554Z,18.50
2018-09-10T08:51:41.976Z,18.50
2018-09-10T08:54:10.321Z,18.60
2018-09-10T08:56:38.692Z,18.70
2018-09-10T08:59:07.136Z,18.80
2018-09-10T09:01:35.447Z,18.90
2018-09-10T09:04:03.751Z,19.00
2018-09-10T09:06:32.094Z,19.00
2018-09-10T09:09:00.398Z,19.10
2018-09-10T09:11:28.858Z,19.10
2018-09-10T09:13:57.442Z,19.20
2018-09-10T09:16:25.848Z,19.30
2018-09-10T09:18:54.293Z,19.40
2018-09-10T09:21:22.601Z,19.40
2018-09-10T09:23:50.978Z,19.50
2018-09-10T09:26:19.384Z,19.50
2018-09-10T09:28:47.658Z,19.60
2018-09-10T09:31:16.101Z,19.70
2018-09-10T09:33:44.414Z,19.70
2018-09-10T09:36:18.299Z,19.80
2018-09-10T09:38:52.019Z,19.90
2018-09-10T09:41:25.842Z,20.00
2018-09-10T09:44:00.101Z,20.00
2018-09-10T09:46:28.425Z,20.10
2018-09-10T09:48:56.786Z,20.20
2018-09-10T09:51:25.202Z,20.30
2018-09-10T09:53:53.624Z,20.30
2018-09-10T09:56:21.925Z,20.30
2018-09-10T09:58:50.514Z,20.40
2018-09-10T10:01:20.723Z,20.40
2018-09-10T10:03:55.777Z,20.50
2018-09-10T10:06:25.029Z,20.40
2018-09-10T10:08:53.745Z,20.40
2018-09-10T10:11:22.225Z,20.50
2018-09-10T10:13:50.507Z,20.60
2018-09-10T10:16:19.049Z,20.70
2018-09-10T10:18:47.504Z,20.70
2018-09-10T10:21:15.908Z,20.80
2018-09-10T10:23:44.488Z,20.90
2018-09-10T10:26:12.807Z,20.90
2018-09-10T10:28:41.117Z,21.00
2018-09-10T10:31:09.400Z,21.00
2018-09-10T10:33:37.698Z,21.00
2018-09-10T10:36:06.025Z,21.10
2018-09-10T10:38:34.332Z,21.20
2018-09-10T10:41:02.631Z,21.30
2018-09-10T10:43:30.967Z,21.30
2018-09-10T10:45:59.433Z,21.40
2018-09-10T10:48:27.714Z,21.50
2018-09-10T10:50:55.990Z,21.50
2018-09-10T10:53:24.430Z,21.60
2018-09-10T10:55:52.831Z,21.70
2018-09-10T10:58:21.230Z,21.80
2018-09-10T11:00:49.511Z,21.80
2018-09-10T11:03:17.987Z,22.00
2018-09-10T11:05:46.293Z,22.00
2018-09-10T11:08:14.595Z,22.10
2018-09-10T11:10:42.873Z,22.20
2018-09-10T11:13:11.173Z,22.20
2018-09-10T11:15:39.433Z,22.30
2018-09-10T11:18:07.728Z,22.30
2018-09-10T11:20:36.011Z,22.40
2018-09-10T11:23:04.298Z,22.50
2018-09-10T11:25:32.586Z,22.70
2018-09-10T11:28:00.904Z,22.70
2018-09-10T11:30:29.176Z,22.90
2018-09-10T11:32:57.483Z,22.90
2018-09-10T11:35:25.772Z,23.10
2018-09-10T11:37:54.054Z,23.20
2018-09-10T11:40:22.347Z,23.30
2018-09-10T11:42:50.671Z,23.30
2018-09-10T11:45:18.952Z,23.40
2018-09-10T11:47:47.340Z,23.50
2018-09-10T11:50:15.617Z,23.60
2018-09-10T11:52:43.935Z,23.70
2018-09-10T11:55:12.216Z,23.80
2018-09-10T11:57:40.513Z,23.80
2018-09-10T12:00:08.800Z,24.00
2018-09-10T12:02:37.097Z,24.00
2018-09-10T12:05:05.387Z,24.10
2018-09-10T12:07:33.663Z,24.30
2018-09-10T12:10:01.983Z,24.40
2018-09-10T12:12:30.251Z,24.50
2018-09-10T12:14:58.559Z,24.50
2018-09-10T12:17:26.876Z,24.60
2018-09-10T12:19:55.234Z,24.80
2018-09-10T12:22:23.522Z,24.90
2018-09-10T12:24:51.823Z,24.90
2018-09-10T12:27:20.140Z,25.00
2018-09-10T12:29:48.446Z,25.10
2018-09-10T12:32:16.740Z,25.20
2018-09-10T12:34:45.037Z,25.30
2018-09-10T12:37:13.302Z,25.50
2018-09-10T12:39:41.605Z,25.60
2018-09-10T12:42:09.875Z,25.80
2018-09-10T12:44:38.183Z,26.00
2018-09-10T12:47:06.442Z,26.10
2018-09-10T12:49:34.861Z,26.20
2018-09-10T12:52:03.119Z,26.50
2018-09-10T12:54:31.413Z,26.60
2018-09-10T12:56:59.786Z,26.80
2018-09-10T12:59:28.070Z,26.90
2018-09-10T13:01:56.406Z,27.00
2018-09-10T13:04:24.738Z,27.10
2018-09-10T13:06:53.007Z,27.10
2018-09-10T13:09:21.307Z,27.20
2018-09-10T13:11:49.600Z,27.10
2018-09-10T13:14:17.896Z,27.20
2018-09-10T13:16:46.161Z,27.50
2018-09-10T13:19:14.447Z,27.50
2018-09-10T13:21:42.707Z,27.50
2018-09-10T13:24:11.004Z,27.60
2018-09-10T13:26:39.293Z,27.70
2018-09-10T13:29:07.578Z,27.80
2018-09-10T13:31:35.856Z,27.90
2018-09-10T13:34:04.168Z,27.90
2018-09-10T13:36:32.461Z,28.00
2018-09-10T13:39:00.736Z,28.00
2018-09-10T13:41:29.020Z,28.00
2018-09-10T13:43:57.329Z,28.00
2018-09-10T13:46:25.620Z,28.00
2018-09-10T13:48:53.923Z,27.80
2018-09-10T13:51:28.720Z,27.80
2018-09-10T13:53:57.049Z,28.10
2018-09-10T13:56:25.379Z,28.20
2018-09-10T13:58:53.743Z,28.10
2018-09-10T14:01:22.076Z,28.10
2018-09-10T14:03:50.343Z,28.20
2018-09-10T14:06:18.650Z,28.40
2018-09-10T14:08:46.960Z,28.40
2018-09-10T14:11:15.260Z,28.50
2018-09-10T14:13:43.567Z,28.70
2018-09-10T14:16:11.871Z,28.90
2018-09-10T14:18:40.174Z,29.30
2018-09-10T14:21:08.472Z,29.60
2018-09-10T14:23:36.955Z,29.70
2018-09-10T14:26:05.303Z,30.00
2018-09-10T14:28:33.626Z,30.50
2018-09-10T14:31:01.927Z,31.10
2018-09-10T14:33:30.224Z,31.30
2018-09-10T14:35:58.921Z,30.40
2018-09-10T14:38:27.219Z,29.80
2018-09-10T14:40:55.550Z,29.40
2018-09-10T14:43:23.851Z,30.10
2018-09-10T14:45:52.342Z,30.10
2018-09-10T14:48:20.711Z,29.70
2018-09-10T14:50:49.027Z,30.20
2018-09-10T14:53:17.341Z,31.10
2018-09-10T14:55:45.651Z,32.00
2018-09-10T14:58:13.945Z,32.20
2018-09-10T15:00:42.260Z,32.60
2018-09-10T15:03:10.534Z,32.40
2018-09-10T15:05:38.836Z,31.90
2018-09-10T15:08:07.112Z,31.30
2018-09-10T15:10:35.500Z,31.00
2018-09-10T15:13:03.984Z,30.80
2018-09-10T15:15:32.306Z,30.50
2018-09-10T15:18:00.588Z,30.60
2018-09-10T15:20:28.887Z,30.40
2018-09-10T15:22:58.122Z,30.00
2018-09-10T15:25:26.508Z,30.00
2018-09-10T15:27:54.812Z,29.70
2018-09-10T15:30:23.160Z,29.50
2018-09-10T15:32:51.817Z,29.20
2018-09-10T15:35:20.155Z,29.00
2018-09-10T15:37:48.519Z,28.60
2018-09-10T15:40:16.975Z,28.60
2018-09-10T15:42:45.342Z,28.40
2018-09-10T15:45:13.692Z,28.40
2018-09-10T15:47:42.036Z,28.30
2018-09-10T15:50:10.492Z,28.20
2018-09-10T15:52:38.835Z,28.20
2018-09-10T15:55:07.172Z,28.00
2018-09-10T15:57:35.517Z,27.90
2018-09-10T16:00:03.858Z,27.80
2018-09-10T16:02:32.224Z,27.80
2018-09-10T16:05:00.579Z,27.70
2018-09-10T16:07:28.944Z,27.70
2018-09-10T16:09:57.462Z,27.70
2018-09-10T16:12:25.786Z,27.50
2018-09-10T16:14:54.139Z,27.40
2018-09-10T16:17:22.467Z,27.40
2018-09-10T16:19:50.869Z,27.20
2018-09-10T16:22:19.291Z,27.30
2018-09-10T16:24:47.635Z,27.10
2018-09-10T16:27:15.981Z,27.10
2018-09-10T16:29:44.325Z,27.00
2018-09-10T16:32:12.625Z,27.00
2018-09-10T16:34:40.977Z,27.00
2018-09-10T16:37:09.473Z,27.00
2018-09-10T16:39:38.014Z,27.00
2018-09-10T16:42:06.407Z,26.90
2018-09-10T16:44:34.729Z,27.00
2018-09-10T16:47:03.077Z,26.90
2018-09-10T16:49:31.392Z,26.90
2018-09-10T16:52:00.517Z,26.90
2018-09-10T16:54:28.877Z,26.80
2018-09-10T16:56:57.304Z,26.80
2018-09-10T16:59:25.842Z,26.80
2018-09-10T17:01:54.198Z,26.70
2018-09-10T17:04:22.551Z,26.60
2018-09-10T17:06:50.929Z,26.60
2018-09-10T17:09:19.227Z,26.50
2018-09-10T17:11:47.625Z,26.50
2018-09-10T17:14:15.992Z,26.50
2018-09-10T17:16:44.343Z,26.50
2018-09-10T17:19:12.920Z,26.50
2018-09-10T17:21:41.488Z,26.40
2018-09-10T17:24:09.751Z,26.30
2018-09-10T17:26:38.394Z,26.30
2018-09-10T17:29:13.377Z,26.20
2018-09-10T17:31:41.783Z,26.20
2018-09-10T17:34:10.155Z,26.10
2018-09-10T17:36:38.490Z,26.00
2018-09-10T17:39:07.748Z,25.90
2018-09-10T17:41:36.238Z,25.90
2018-09-10T17:44:04.571Z,25.80
2018-09-10T17:46:32.939Z,25.60
2018-09-10T17:49:01.350Z,25.40
2018-09-10T17:51:29.695Z,25.40
2018-09-10T17:53:58.032Z,25.20
2018-09-10T17:56:26.436Z,25.10
2018-09-10T17:58:54.744Z,25.10
2018-09-10T18:01:23.046Z,25.00
2018-09-10T18:03:51.356Z,24.80
2018-09-10T18:06:19.893Z,24.80
2018-09-10T18:08:48.170Z,24.80
2018-09-10T18:11:16.672Z,24.80
2018-09-10T18:13:45.237Z,24.60
2018-09-10T18:16:13.567Z,24.50
2018-09-10T18:18:42.113Z,24.50
2018-09-10T18:21:10.446Z,24.50
2018-09-10T18:23:38.834Z,24.40
2018-09-10T18:26:07.174Z,24.50
2018-09-10T18:28:35.463Z,24.30
2018-09-10T18:31:03.764Z,24.30
2018-09-10T18:33:32.246Z,24.20
2018-09-10T18:36:00.543Z,24.20
2018-09-10T18:38:29.029Z,24.10
2018-09-10T18:40:57.394Z,24.00
2018-09-10T18:43:25.668Z,24.00
2018-09-10T18:45:53.984Z,23.90
2018-09-10T18:48:22.277Z,23.80
2018-09-10T18:50:50.584Z,23.70
2018-09-10T18:53:18.868Z,23.60
2018-09-10T18:55:47.171Z,23.60
2018-09-10T18:58:15.506Z,23.60
2018-09-10T19:00:43.898Z,23.60
2018-09-10T19:03:12.138Z,23.50
2018-09-10T19:05:40.420Z,23.40
2018-09-10T19:08:08.829Z,23.40
2018-09-10T19:10:37.133Z,23.30
2018-09-10T19:13:05.762Z,23.20
2018-09-10T19:15:34.218Z,23.20
2018-09-10T19:18:02.651Z,23.00
2018-09-10T19:20:31.231Z,23.10
2018-09-10T19:23:00.363Z,23.00
2018-09-10T19:25:28.693Z,22.90
2018-09-10T19:27:57.084Z,22.80
2018-09-10T19:30:25.406Z,22.90
2018-09-10T19:32:53.737Z,22.80
2018-09-10T19:35:22.031Z,22.80
2018-09-10T19:37:50.434Z,22.80
2018-09-10T19:40:18.760Z,22.70
2018-09-10T19:42:47.335Z,22.70
2018-09-10T19:45:15.672Z,22.60
2018-09-10T19:47:43.972Z,22.40
2018-09-10T19:50:12.385Z,22.50
2018-09-10T19:52:41.265Z,22.50
2018-09-10T19:55:09.618Z,22.40
2018-09-10T19:57:37.992Z,22.50
2018-09-10T20:00:07.115Z,22.40
2018-09-10T20:02:35.491Z,22.40
2018-09-10T20:05:03.775Z,22.40
2018-09-10T20:07:32.244Z,22.40
2018-09-10T20:10:00.798Z,22.40
2018-09-10T20:12:29.126Z,22.40
2018-09-10T20:14:57.456Z,22.30
2018-09-10T20:18:50.516Z,22.30
2018-09-10T20:21:18.840Z,22.30
2018-09-10T20:23:47.168Z,22.10
2018-09-10T20:26:15.656Z,22.10
2018-09-10T20:31:17.078Z,22.10
2018-09-10T20:33:50.791Z,21.90
2018-09-10T20:36:19.137Z,21.90
2018-09-10T20:38:47.883Z,21.90
2018-09-10T20:41:19.567Z,21.80
2018-09-10T20:43:48.347Z,21.80
2018-09-10T20:46:16.678Z,21.70
2018-09-10T20:48:45.206Z,21.70
2018-09-10T20:51:14.138Z,21.70
2018-09-10T20:53:42.475Z,21.60
2018-09-10T20:56:10.770Z,21.50
2018-09-10T20:58:39.195Z,21.50
2018-09-10T21:01:07.527Z,21.40
2018-09-10T21:03:35.866Z,21.40
2018-09-10T21:06:04.295Z,21.30
2018-09-10T21:08:32.656Z,21.30
2018-09-10T21:11:00.940Z,21.30
2018-09-10T21:13:29.360Z,21.20
2018-09-10T21:15:57.878Z,21.20
2018-09-10T21:18:27.840Z,21.10
2018-09-10T21:20:56.543Z,21.10
2018-09-10T21:23:24.878Z,21.10
2018-09-10T21:25:53.264Z,21.10
2018-09-10T21:28:21.591Z,21.00
2018-09-10T21:30:49.914Z,20.90
2018-09-10T21:33:18.220Z,20.90
2018-09-10T21:35:46.523Z,20.80
2018-09-10T21:38:14.876Z,20.70
2018-09-10T21:40:43.241Z,20.70
2018-09-10T21:43:11.543Z,20.60
2018-09-10T21:45:39.851Z,20.50
2018-09-10T21:48:08.156Z,20.40
2018-09-10T21:50:36.573Z,20.40
2018-09-10T21:53:04.881Z,20.40
2018-09-10T21:55:33.170Z,20.50
2018-09-10T21:58:01.500Z,20.30
2018-09-10T22:00:29.776Z,20.30
2018-09-10T22:02:58.147Z,20.30
2018-09-10T22:05:26.638Z,20.30
2018-09-10T22:07:54.918Z,20.30
2018-09-10T22:10:23.254Z,20.30
2018-09-10T22:12:51.667Z,20.30
2018-09-10T22:15:19.964Z,20.30
2018-09-10T22:17:48.376Z,20.30
2018-09-10T22:20:16.655Z,20.30
2018-09-10T22:22:45.085Z,20.10
2018-09-10T22:25:13.373Z,20.10
2018-09-10T22:27:41.708Z,20.00
2018-09-10T22:30:10.013Z,20.00
2018-09-10T22:32:38.323Z,20.00
2018-09-10T22:35:06.814Z,20.00
2018-09-10T22:37:36.151Z,19.80
2018-09-10T22:40:04.597Z,19.80
2018-09-10T22:42:32.892Z,19.70
2018-09-10T22:45:01.258Z,19.70
2018-09-10T22:47:29.595Z,19.70
2018-09-10T22:49:58.034Z,19.70
2018-09-10T22:52:26.327Z,19.60
2018-09-10T22:54:54.648Z,19.50
2018-09-10T22:57:23.014Z,19.60
2018-09-10T22:59:51.335Z,19.50
2018-09-10T23:02:19.615Z,19.60
2018-09-10T23:04:48.030Z,19.60
2018-09-10T23:07:16.327Z,19.50
2018-09-10T23:09:44.663Z,19.50
2018-09-10T23:12:12.951Z,19.40
2018-09-10T23:14:41.260Z,19.30
2018-09-10T23:17:09.539Z,19.30
2018-09-10T23:19:37.858Z,19.10
2018-09-10T23:22:06.182Z,19.10
2018-09-10T23:24:34.493Z,19.10
2018-09-10T23:27:03.366Z,19.00
2018-09-10T23:29:31.918Z,19.00
2018-09-10T23:32:00.212Z,19.10
2018-09-10T23:34:28.495Z,19.10
2018-09-10T23:36:56.795Z,19.00
2018-09-10T23:39:25.145Z,19.00
2018-09-10T23:41:53.435Z,19.00
2018-09-10T23:44:21.735Z,19.00
2018-09-10T23:46:50.034Z,18.90
2018-09-10T23:49:18.340Z,18.90
2018-09-10T23:51:46.679Z,18.80
2018-09-10T23:54:14.998Z,18.80
2018-09-10T23:56:43.380Z,18.70
2018-09-10T23:59:11.730Z,18.80
